Time;durP1;ratioP1;P1;durP2;ratioP2;P2;SDS_P1;SDS_P2;PMS_P1;PMS_P2;Temp;Humidity;BMP_temperature;BMP_pressure;BME280_temperature;BME280_humidity;BME280_pressure;Samples;Min_cycle;Max_cycle;Signal;HPM_P1;HPM_P2
2021/06/09 00:01:39;;;;;;;7.90;5.30;;;18.60;96.10;;;;;;4441504;32;20139;-74
2021/06/09 00:04:06;;;;;;;6.27;4.83;;;18.60;96.20;;;;;;4440817;32;20135;-74
2021/06/09 00:06:35;;;;;;;5.90;4.97;;;18.60;96.10;;;;;;4440933;32;20452;-74
2021/06/09 00:09:03;;;;;;;10.10;5.47;;;18.50;96.00;;;;;;4442402;32;20192;-74
2021/06/09 00:11:30;;;;;;;10.33;5.17;;;18.60;95.80;;;;;;4440384;32;20476;-74
2021/06/09 00:13:57;;;;;;;6.60;5.00;;;18.50;95.60;;;;;;4440794;32;20142;-74
2021/06/09 00:16:24;;;;;;;5.67;4.40;;;18.40;95.60;;;;;;4440818;32;20146;-75
2021/06/09 00:18:51;;;;;;;6.03;4.67;;;18.40;95.70;;;;;;4440248;32;20206;-74
2021/06/09 00:21:19;;;;;;;6.77;4.80;;;18.40;95.90;;;;;;4442187;32;20170;-74
2021/06/09 00:23:47;;;;;;;6.97;5.00;;;18.30;95.90;;;;;;4440607;32;20181;-74
2021/06/09 00:26:17;;;;;;;6.77;4.60;;;18.30;96.40;;;;;;4440787;32;20392;-74
2021/06/09 00:28:45;;;;;;;7.13;4.90;;;18.30;95.90;;;;;;4440096;32;20139;-75
2021/06/09 00:31:13;;;;;;;5.90;4.60;;;18.30;95.80;;;;;;4442108;32;20161;-75
2021/06/09 00:33:40;;;;;;;9.57;4.70;;;18.30;95.90;;;;;;4440362;32;20425;-74
2021/06/09 00:36:07;;;;;;;6.63;4.83;;;18.30;96.10;;;;;;4440403;32;20191;-75
2021/06/09 00:38:35;;;;;;;8.13;4.97;;;18.20;96.10;;;;;;4440508;32;20168;-74
2021/06/09 00:41:02;;;;;;;6.50;4.87;;;18.20;96.30;;;;;;4440646;32;20158;-75
2021/06/09 00:43:34;;;;;;;7.73;4.90;;;18.10;96.40;;;;;;4440534;32;20146;-75
2021/06/09 00:46:09;;;;;;;7.37;4.60;;;18.10;96.50;;;;;;4440691;32;20134;-74
2021/06/09 00:48:39;;;;;;;6.43;4.83;;;18.10;96.70;;;;;;4442004;32;20161;-74
2021/06/09 00:51:12;;;;;;;6.40;5.00;;;18.10;97.00;;;;;;4441747;32;20142;-74
2021/06/09 00:53:52;;;;;;;6.83;5.07;;;18.00;97.30;;;;;;4441724;32;20211;-74
2021/06/09 00:56:21;;;;;;;8.57;5.13;;;17.90;97.40;;;;;;4441105;32;20438;-75
2021/06/09 00:58:49;;;;;;;7.00;4.93;;;17.90;97.40;;;;;;4439110;32;20216;-74
2021/06/09 01:01:20;;;;;;;9.33;5.23;;;17.90;97.70;;;;;;4439851;32;20151;-75
2021/06/09 01:03:47;;;;;;;6.67;4.90;;;17.80;97.70;;;;;;4440202;32;20147;-74
2021/06/09 01:06:15;;;;;;;7.87;5.40;;;17.80;98.00;;;;;;4439929;32;20164;-74
2021/06/09 01:08:43;;;;;;;7.13;5.33;;;17.70;98.20;;;;;;4440308;32;20206;-74
2021/06/09 01:11:13;;;;;;;10.60;5.33;;;17.70;98.50;;;;;;4439852;32;20147;-74
2021/06/09 01:13:41;;;;;;;8.03;5.03;;;17.70;98.90;;;;;;4441350;32;20197;-74
2021/06/09 01:16:08;;;;;;;6.80;5.03;;;17.60;99.10;;;;;;4441160;32;20143;-74
2021/06/09 01:18:35;;;;;;;8.33;5.17;;;17.60;99.40;;;;;;4439846;32;20387;-74
2021/06/09 01:21:02;;;;;;;8.30;5.20;;;17.50;99.60;;;;;;4439930;32;20151;-74
2021/06/09 01:23:30;;;;;;;6.73;5.07;;;17.50;99.80;;;;;;4441337;32;20163;-74
2021/06/09 01:25:58;;;;;;;6.67;5.27;;;17.40;99.90;;;;;;4439799;32;20194;-74
2021/06/09 01:28:25;;;;;;;8.57;5.40;;;17.40;99.90;;;;;;4441516;32;20164;-74
2021/06/09 01:30:53;;;;;;;7.67;5.17;;;17.40;99.90;;;;;;4439766;32;20379;-74
2021/06/09 01:33:21;;;;;;;9.00;5.50;;;17.30;99.90;;;;;;4439832;32;20164;-74
2021/06/09 01:35:52;;;;;;;6.70;5.07;;;17.30;99.90;;;;;;4439691;32;20173;-74
2021/06/09 01:38:19;;;;;;;6.67;5.50;;;17.20;99.90;;;;;;4439166;32;20143;-74
2021/06/09 01:40:46;;;;;;;7.57;5.17;;;17.20;99.90;;;;;;4441669;32;20135;-74
2021/06/09 01:43:14;;;;;;;7.23;5.37;;;17.20;99.90;;;;;;4439614;32;20150;-74
2021/06/09 01:45:41;;;;;;;6.67;5.40;;;17.10;99.90;;;;;;4439673;32;20154;-74
2021/06/09 01:48:10;;;;;;;7.33;5.33;;;17.10;99.90;;;;;;4438925;32;20208;-74
2021/06/09 01:50:39;;;;;;;7.27;4.80;;;17.00;99.90;;;;;;4439050;32;20151;-75
2021/06/09 01:53:09;;;;;;;6.57;5.00;;;17.00;99.90;;;;;;4439339;32;20147;-74
2021/06/09 01:55:38;;;;;;;9.57;5.27;;;17.00;99.90;;;;;;4441128;32;20139;-74
2021/06/09 01:58:07;;;;;;;8.50;5.53;;;17.00;99.90;;;;;;4440551;32;20206;-75
2021/06/09 02:00:42;;;;;;;8.67;5.13;;;17.00;99.90;;;;;;4441064;32;20135;-75
2021/06/09 02:03:12;;;;;;;7.47;5.17;;;16.90;99.90;;;;;;4441534;32;20142;-74
2021/06/09 02:05:40;;;;;;;5.93;5.23;;;16.90;99.90;;;;;;4439800;32;20157;-74
2021/06/09 02:08:10;;;;;;;6.90;5.30;;;16.80;99.90;;;;;;4438930;32;20218;-74
2021/06/09 02:10:38;;;;;;;9.53;5.50;;;16.80;99.90;;;;;;4439361;32;20188;-74
2021/06/09 02:13:14;;;;;;;7.73;5.10;;;16.80;99.90;;;;;;4439369;32;20202;-74
2021/06/09 02:15:43;;;;;;;7.27;5.23;;;16.80;99.90;;;;;;4441226;32;20172;-74
2021/06/09 02:18:17;;;;;;;7.93;5.30;;;16.80;99.90;;;;;;4439389;32;20190;-74
2021/06/09 02:20:49;;;;;;;10.97;5.80;;;16.70;99.90;;;;;;4441205;32;20353;-74
2021/06/09 02:23:18;;;;;;;6.90;5.17;;;16.70;99.90;;;;;;4439878;32;20484;-74
2021/06/09 02:25:48;;;;;;;7.97;5.47;;;16.70;99.90;;;;;;4439361;32;20191;-74
2021/06/09 02:28:15;;;;;;;8.33;5.97;;;16.70;99.90;;;;;;4439521;32;20219;-74
2021/06/09 02:30:44;;;;;;;7.13;5.57;;;16.60;99.90;;;;;;4442573;32;20151;-74
2021/06/09 02:33:13;;;;;;;9.30;5.70;;;16.60;99.90;;;;;;4442275;32;20142;-74
2021/06/09 02:35:43;;;;;;;7.03;5.70;;;16.50;99.90;;;;;;4443799;32;20461;-74
2021/06/09 02:38:11;;;;;;;10.33;5.77;;;16.50;99.90;;;;;;4442296;32;20150;-74
2021/06/09 02:40:39;;;;;;;10.23;5.80;;;16.50;99.90;;;;;;4443142;32;20407;-74
2021/06/09 02:43:07;;;;;;;7.20;5.47;;;16.50;99.90;;;;;;4443801;32;20139;-74
2021/06/09 02:45:34;;;;;;;7.60;5.40;;;16.50;99.90;;;;;;4442379;32;20157;-74
2021/06/09 02:48:06;;;;;;;8.67;5.67;;;16.50;99.90;;;;;;4442013;32;20193;-74
2021/06/09 02:50:34;;;;;;;8.40;5.80;;;16.50;99.90;;;;;;4443571;32;20166;-74
2021/06/09 02:53:26;;;;;;;7.47;5.57;;;16.50;99.90;;;;;;4442020;32;20142;-74
2021/06/09 02:56:05;;;;;;;10.20;5.90;;;16.50;99.90;;;;;;4442083;32;20435;-74
2021/06/09 02:58:42;;;;;;;8.13;5.90;;;16.50;99.90;;;;;;4442042;32;20157;-74
2021/06/09 03:01:25;;;;;;;8.13;5.80;;;16.50;99.90;;;;;;4443731;32;20198;-74
2021/06/09 03:04:07;;;;;;;8.80;5.67;;;16.50;99.90;;;;;;4441914;32;20142;-74
2021/06/09 03:06:34;;;;;;;8.20;5.70;;;16.50;99.90;;;;;;4442855;32;20225;-74
2021/06/09 03:09:10;;;;;;;7.97;5.77;;;16.50;99.90;;;;;;4441784;32;20508;-74
2021/06/09 03:11:57;;;;;;;8.67;5.70;;;16.60;99.90;;;;;;4441954;32;20174;-74
2021/06/09 03:17:57;;;;;;;7.77;5.60;;;16.60;99.90;;;;;;4378824;32;20147;-74
2021/06/09 03:20:40;;;;;;;7.23;5.60;;;16.60;99.90;;;;;;4378608;32;20140;-74
2021/06/09 03:23:31;;;;;;;8.90;5.90;;;16.70;99.90;;;;;;4379231;32;20413;-74
2021/06/09 03:26:26;;;;;;;6.50;5.17;;;16.70;99.90;;;;;;4380138;32;20555;-74
2021/06/09 03:29:18;;;;;;;9.07;5.53;;;16.70;99.90;;;;;;4380345;32;20148;-74
2021/06/09 03:31:52;;;;;;;7.30;5.40;;;16.80;99.90;;;;;;4378314;32;20171;-74
2021/06/09 03:34:24;;;;;;;8.13;5.63;;;16.80;99.90;;;;;;4378545;32;20226;-76
2021/06/09 03:36:54;;;;;;;9.17;5.70;;;16.80;99.90;;;;;;4379896;32;20500;-74
2021/06/09 03:39:23;;;;;;;8.17;5.40;;;16.80;99.90;;;;;;4379579;32;20391;-74
2021/06/09 03:41:51;;;;;;;9.27;5.47;;;16.80;99.90;;;;;;4378339;32;20187;-75
2021/06/09 03:44:33;;;;;;;9.10;5.57;;;16.90;99.90;;;;;;4377463;32;20153;-75
2021/06/09 03:47:01;;;;;;;8.33;5.37;;;16.90;99.90;;;;;;4377938;32;20191;-74
2021/06/09 03:49:28;;;;;;;7.07;5.33;;;17.00;99.90;;;;;;4379313;32;20440;-74
2021/06/09 03:51:56;;;;;;;7.77;5.50;;;17.00;99.90;;;;;;4377323;32;20164;-74
2021/06/09 03:54:24;;;;;;;7.57;5.43;;;17.10;99.90;;;;;;4409916;32;20143;-74
2021/06/09 03:56:54;;;;;;;8.17;5.13;;;17.10;99.90;;;;;;4441908;32;20162;-74
2021/06/09 03:59:23;;;;;;;7.17;5.37;;;17.20;99.90;;;;;;4441205;32;20210;-74
2021/06/09 04:01:52;;;;;;;10.33;5.13;;;17.20;99.90;;;;;;4441015;32;20192;-74
2021/06/09 04:04:21;;;;;;;7.13;5.50;;;17.30;99.90;;;;;;4439739;32;20362;-74
2021/06/09 04:06:53;;;;;;;7.67;5.33;;;17.30;99.90;;;;;;4440777;32;20223;-74
2021/06/09 04:09:22;;;;;;;7.57;5.23;;;17.30;99.90;;;;;;4442376;32;20174;-74
2021/06/09 04:11:57;;;;;;;6.07;5.27;;;17.40;99.90;;;;;;4441707;32;20581;-74
2021/06/09 04:14:33;;;;;;;7.27;5.43;;;17.40;99.90;;;;;;4440821;32;20142;-74
2021/06/09 04:17:02;;;;;;;8.57;5.67;;;17.40;99.90;;;;;;4440778;32;20178;-75
2021/06/09 04:19:31;;;;;;;7.80;5.60;;;17.50;99.90;;;;;;4440703;32;20194;-74
2021/06/09 04:21:59;;;;;;;6.97;5.53;;;17.50;99.90;;;;;;4440605;32;20396;-74
2021/06/09 04:24:33;;;;;;;11.00;5.40;;;17.40;99.90;;;;;;4441041;32;20189;-74
2021/06/09 04:27:02;;;;;;;8.70;5.50;;;17.50;99.90;;;;;;4440671;32;20196;-74
2021/06/09 04:29:30;;;;;;;8.63;5.70;;;17.50;99.90;;;;;;4442501;32;20195;-74
2021/06/09 04:31:57;;;;;;;7.30;5.50;;;17.50;99.90;;;;;;4440420;32;20147;-74
2021/06/09 04:34:24;;;;;;;6.93;5.27;;;17.50;99.90;;;;;;4441946;32;20316;-74
2021/06/09 04:36:52;;;;;;;9.30;5.20;;;17.60;99.90;;;;;;4440445;32;20138;-74
2021/06/09 04:39:19;;;;;;;8.23;5.47;;;17.60;99.90;;;;;;4441504;32;20195;-74
2021/06/09 04:41:46;;;;;;;10.63;5.60;;;17.70;99.90;;;;;;4440356;32;20162;-74
2021/06/09 04:44:16;;;;;;;11.43;5.67;;;17.70;99.90;;;;;;4440402;32;20143;-74
2021/06/09 04:46:43;;;;;;;10.73;5.40;;;17.80;99.90;;;;;;4441136;32;20184;-74
2021/06/09 04:49:11;;;;;;;8.93;5.50;;;17.80;99.90;;;;;;4441449;32;20202;-74
2021/06/09 04:51:38;;;;;;;7.13;5.50;;;17.90;99.90;;;;;;4441366;32;20452;-72
2021/06/09 04:54:07;;;;;;;5.63;5.03;;;17.90;99.90;;;;;;4440206;32;20138;-75
2021/06/09 04:56:38;;;;;;;9.27;5.87;;;18.00;99.90;;;;;;4440361;32;20157;-75
2021/06/09 04:59:07;;;;;;;8.20;5.07;;;18.00;99.90;;;;;;4440296;32;20134;-75
2021/06/09 05:01:38;;;;;;;8.37;5.97;;;18.10;99.90;;;;;;4440189;32;20143;-74
2021/06/09 05:04:06;;;;;;;9.03;5.33;;;18.20;99.90;;;;;;4441493;32;20139;-74
2021/06/09 05:06:33;;;;;;;7.73;5.40;;;18.20;99.90;;;;;;4441444;32;20169;-75
2021/06/09 05:09:02;;;;;;;7.60;5.40;;;18.20;99.90;;;;;;4439910;32;20547;-74
2021/06/09 05:11:36;;;;;;;7.23;5.10;;;18.20;99.90;;;;;;4439994;32;20238;-75
2021/06/09 05:14:06;;;;;;;8.97;5.30;;;18.40;99.90;;;;;;4440129;32;20422;-75
2021/06/09 05:16:36;;;;;;;7.23;5.20;;;18.40;99.90;;;;;;4439975;32;20142;-75
2021/06/09 05:19:04;;;;;;;9.93;5.30;;;18.50;99.90;;;;;;4439942;32;20131;-75
2021/06/09 05:21:34;;;;;;;10.40;5.63;;;18.50;99.90;;;;;;4439924;32;20154;-75
2021/06/09 05:24:03;;;;;;;9.67;5.90;;;18.60;99.90;;;;;;4440887;32;20468;-75
2021/06/09 05:26:32;;;;;;;8.03;5.70;;;18.70;99.90;;;;;;4441201;32;20178;-75
2021/06/09 05:29:05;;;;;;;10.53;6.20;;;18.80;99.90;;;;;;4441172;32;20138;-77
2021/06/09 05:31:35;;;;;;;8.07;5.83;;;18.90;99.90;;;;;;4440919;32;20147;-74
2021/06/09 05:34:02;;;;;;;7.90;5.63;;;19.10;99.90;;;;;;4439758;32;20139;-75
2021/06/09 05:36:30;;;;;;;7.87;5.37;;;19.10;99.90;;;;;;4439532;32;20198;-75
2021/06/09 05:38:57;;;;;;;7.60;5.60;;;19.10;99.90;;;;;;4439475;32;20403;-75
2021/06/09 05:41:25;;;;;;;8.77;5.40;;;19.20;99.90;;;;;;4439357;32;20198;-75
2021/06/09 05:43:52;;;;;;;8.73;5.60;;;19.20;99.90;;;;;;4437421;32;20158;-75
2021/06/09 05:46:19;;;;;;;6.83;5.30;;;19.20;99.90;;;;;;4440630;32;20139;-75
2021/06/09 05:48:47;;;;;;;7.47;5.20;;;19.30;99.90;;;;;;4440008;32;20463;-75
2021/06/09 05:51:17;;;;;;;8.60;5.27;;;19.40;99.90;;;;;;4438641;32;20155;-75
2021/06/09 05:53:45;;;;;;;11.33;5.43;;;19.50;99.90;;;;;;4439420;32;20204;-76
2021/06/09 05:56:12;;;;;;;10.77;4.97;;;19.50;99.90;;;;;;4441026;32;20414;-75
2021/06/09 05:58:39;;;;;;;7.23;5.23;;;19.60;99.90;;;;;;4439372;32;20153;-76
2021/06/09 06:01:09;;;;;;;8.57;5.57;;;19.70;99.90;;;;;;4439519;32;20409;-75
2021/06/09 06:03:39;;;;;;;8.17;5.60;;;19.70;99.90;;;;;;4442910;32;20188;-76
2021/06/09 06:06:08;;;;;;;8.77;5.33;;;19.70;99.90;;;;;;4442646;32;20143;-75
2021/06/09 06:08:37;;;;;;;7.37;5.23;;;19.80;99.90;;;;;;4442685;32;20150;-75
2021/06/09 06:11:11;;;;;;;6.63;4.90;;;19.90;99.90;;;;;;4443429;32;20178;-75
2021/06/09 06:13:40;;;;;;;7.57;5.33;;;19.90;99.90;;;;;;4442826;32;20191;-75
2021/06/09 06:16:07;;;;;;;7.53;5.33;;;20.10;99.90;;;;;;4443690;32;20135;-76
2021/06/09 06:18:39;;;;;;;10.23;5.20;;;20.10;99.90;;;;;;4443797;32;20444;-76
2021/06/09 06:21:10;;;;;;;8.57;5.43;;;20.10;99.90;;;;;;4442315;32;20143;-76
2021/06/09 06:23:39;;;;;;;8.50;5.00;;;20.20;99.90;;;;;;4441852;32;20134;-75
2021/06/09 06:26:10;;;;;;;5.73;4.97;;;20.30;99.90;;;;;;4443690;32;20143;-76
2021/06/09 06:28:41;;;;;;;8.50;5.13;;;20.20;99.40;;;;;;4442024;32;20143;-75
2021/06/09 06:31:19;;;;;;;6.00;4.80;;;20.20;99.40;;;;;;4443590;32;20172;-75
2021/06/09 06:33:47;;;;;;;5.40;4.50;;;20.30;99.10;;;;;;4443549;32;20392;-75
2021/06/09 06:36:18;;;;;;;6.80;4.13;;;20.40;98.70;;;;;;4441911;32;20135;-76
2021/06/09 06:38:46;;;;;;;7.07;4.20;;;20.40;98.00;;;;;;4442045;32;20402;-79
2021/06/09 06:41:14;;;;;;;7.27;4.63;;;20.50;97.50;;;;;;4438234;32;20143;-76
2021/06/09 06:43:41;;;;;;;8.33;4.47;;;20.60;98.00;;;;;;4439623;32;20208;-76
2021/06/09 06:46:14;;;;;;;6.47;4.10;;;20.70;96.40;;;;;;4438147;32;20216;-75
2021/06/09 07:08:22;;;;;;;7.20;3.80;;;20.80;92.70;;;;;;4484741;31;20298;-74
2021/06/09 07:10:50;;;;;;;5.03;3.90;;;21.20;90.50;;;;;;4468289;32;20198;-73
2021/06/09 07:13:18;;;;;;;6.70;3.80;;;21.30;90.20;;;;;;4468081;32;20508;-73
2021/06/09 07:15:46;;;;;;;4.77;3.93;;;21.40;89.80;;;;;;4468274;32;20392;-74
2021/06/09 07:18:15;;;;;;;4.47;3.53;;;21.40;88.60;;;;;;4469732;32;20181;-74
2021/06/09 07:20:42;;;;;;;8.83;3.97;;;21.60;86.70;;;;;;4468123;32;20224;-73
2021/06/09 07:23:11;;;;;;;4.90;3.20;;;21.40;81.80;;;;;;4467513;32;20426;-74
2021/06/09 07:25:38;;;;;;;6.03;3.47;;;21.30;84.20;;;;;;4467416;32;20467;-73
2021/06/09 07:28:06;;;;;;;9.30;3.40;;;21.50;83.90;;;;;;4468816;32;20215;-76
2021/06/09 07:30:35;;;;;;;3.93;3.43;;;21.50;82.00;;;;;;4468603;32;20170;-76
2021/06/09 07:33:04;;;;;;;5.67;3.60;;;21.60;83.90;;;;;;4466404;32;20238;-73
2021/06/09 07:35:33;;;;;;;3.70;3.40;;;21.80;84.60;;;;;;4468053;32;20395;-74
2021/06/09 07:38:16;;;;;;;4.97;3.67;;;22.00;83.80;;;;;;4469368;32;20364;-74
2021/06/09 07:40:45;;;;;;;4.90;3.90;;;22.30;83.60;;;;;;4467261;32;20177;-74
2021/06/09 07:43:17;;;;;;;4.93;3.77;;;22.50;82.80;;;;;;4467744;32;20434;-74
2021/06/09 07:45:47;;;;;;;8.70;3.57;;;22.70;82.60;;;;;;4467055;32;20414;-73
2021/06/09 07:48:17;;;;;;;3.97;3.57;;;22.90;77.40;;;;;;4469292;32;20158;-72
2021/06/09 07:51:12;;;;;;;7.10;3.70;;;22.90;75.00;;;;;;4468245;32;20222;-73
2021/06/09 07:53:40;;;;;;;4.57;3.50;;;22.80;74.60;;;;;;4468775;32;20168;-74
2021/06/09 07:56:12;;;;;;;4.70;3.23;;;23.10;74.50;;;;;;4467956;32;20173;-73
2021/06/09 07:58:41;;;;;;;6.22;3.80;;;23.30;72.10;;;;;;4467761;32;20157;-75
2021/06/09 08:01:08;;;;;;;7.32;4.10;;;23.60;72.80;;;;;;4467537;32;20366;-74
2021/06/09 08:03:37;;;;;;;5.00;4.10;;;23.60;71.40;;;;;;4468339;32;20139;-73
2021/06/09 08:06:04;;;;;;;5.70;4.20;;;23.60;72.70;;;;;;4467414;32;20206;-74
2021/06/09 08:08:32;;;;;;;5.47;4.10;;;23.50;73.10;;;;;;4460710;32;20220;-73
2021/06/09 08:11:00;;;;;;;8.13;3.80;;;23.40;72.70;;;;;;4458854;32;20142;-74
2021/06/09 08:13:27;;;;;;;6.37;3.60;;;23.70;73.10;;;;;;4456532;32;20134;-74
2021/06/09 08:15:55;;;;;;;6.55;3.65;;;23.80;69.20;;;;;;4457369;32;20217;-74
2021/06/09 08:18:22;;;;;;;5.45;3.80;;;24.10;70.20;;;;;;4455825;32;20170;-75
2021/06/09 08:21:13;;;;;;;6.62;4.03;;;24.30;70.20;;;;;;4457038;32;20471;-74
2021/06/09 08:23:42;;;;;;;4.55;3.78;;;24.50;68.70;;;;;;4457485;32;20205;-75
2021/06/09 08:26:11;;;;;;;7.53;4.50;;;24.80;66.90;;;;;;4458451;32;20187;-75
2021/06/09 08:28:40;;;;;;;7.78;4.07;;;25.70;65.20;;;;;;4457069;32;20146;-74
2021/06/09 08:31:09;;;;;;;5.87;4.05;;;26.50;65.10;;;;;;4450618;32;20223;-75
2021/06/09 08:33:37;;;;;;;4.50;4.10;;;27.30;61.80;;;;;;4444398;32;20204;-74
2021/06/09 08:36:06;;;;;;;5.72;3.83;;;27.80;57.60;;;;;;4441516;32;20187;-74
2021/06/09 08:38:34;;;;;;;7.37;4.18;;;28.10;55.90;;;;;;4441405;32;20182;-75
2021/06/09 08:41:03;;;;;;;6.57;5.10;;;27.70;55.40;;;;;;4441853;32;20501;-75
2021/06/09 08:43:33;;;;;;;7.62;4.87;;;27.60;56.50;;;;;;4441639;32;20193;-74
2021/06/09 08:46:03;;;;;;;6.25;4.20;;;27.70;57.10;;;;;;4441269;32;20198;-76
2021/06/09 08:48:33;;;;;;;6.87;3.60;;;27.50;56.00;;;;;;4440942;32;20142;-74
2021/06/09 08:51:02;;;;;;;9.82;4.20;;;27.20;56.40;;;;;;4440476;32;20391;-75
2021/06/09 08:53:33;;;;;;;6.28;4.30;;;27.20;57.40;;;;;;4440820;32;20147;-74
2021/06/09 08:56:00;;;;;;;6.28;3.90;;;27.10;54.70;;;;;;4440510;32;20161;-74
2021/06/09 08:58:28;;;;;;;6.20;3.92;;;27.50;56.50;;;;;;4440301;32;20172;-75
2021/06/09 09:00:55;;;;;;;6.22;4.50;;;27.70;53.30;;;;;;4440529;32;20158;-74
2021/06/09 09:03:22;;;;;;;5.53;4.30;;;27.00;54.10;;;;;;4444733;32;20201;-74
2021/06/09 09:05:49;;;;;;;7.22;4.32;;;26.60;55.30;;;;;;4445633;32;20154;-75
2021/06/09 09:08:16;;;;;;;6.50;4.10;;;26.90;57.20;;;;;;4439925;32;20196;-74
2021/06/09 09:10:43;;;;;;;10.90;4.30;;;27.10;53.40;;;;;;4440137;32;20202;-75
2021/06/09 09:13:11;;;;;;;6.62;3.80;;;26.80;54.60;;;;;;4440289;32;20192;-75
2021/06/09 09:15:38;;;;;;;5.05;3.83;;;27.10;56.60;;;;;;4440490;32;20199;-73
2021/06/09 09:18:08;;;;;;;6.05;4.40;;;27.50;55.60;;;;;;4440325;32;20162;-72
2021/06/09 09:20:41;;;;;;;4.50;3.75;;;27.60;54.50;;;;;;4440838;32;20150;-73
2021/06/09 09:23:25;;;;;;;4.20;3.60;;;27.90;53.80;;;;;;4441039;32;20443;-74
2021/06/09 09:25:55;;;;;;;4.57;3.62;;;27.80;53.80;;;;;;4442095;32;20432;-73
2021/06/09 09:28:31;;;;;;;7.00;3.20;;;28.00;53.40;;;;;;4441426;32;20150;-74
2021/06/09 09:31:19;;;;;;;4.62;3.45;;;28.40;52.10;;;;;;4441548;32;20217;-74
2021/06/09 09:33:46;;;;;;;5.87;3.30;;;28.50;49.70;;;;;;4439824;32;20198;-74
2021/06/09 09:36:19;;;;;;;3.65;3.25;;;28.50;49.00;;;;;;4440101;32;20486;-73
2021/06/09 09:38:46;;;;;;;6.82;3.42;;;28.40;49.70;;;;;;4440208;32;20134;-75
2021/06/09 09:41:15;;;;;;;4.25;3.53;;;28.50;49.70;;;;;;4439672;32;20265;-76
2021/06/09 09:43:52;;;;;;;4.28;3.85;;;28.80;48.10;;;;;;4440505;32;20139;-77
2021/06/09 09:46:24;;;;;;;4.65;3.35;;;29.00;50.20;;;;;;4440468;32;20142;-76
2021/06/09 09:49:12;;;;;;;5.55;3.53;;;29.10;49.30;;;;;;4440488;32;20499;-78
2021/06/09 09:51:42;;;;;;;5.15;3.62;;;28.80;49.20;;;;;;4440416;32;20191;-76
2021/06/09 09:54:09;;;;;;;6.60;3.85;;;28.80;48.50;;;;;;4439830;32;20172;-76
2021/06/09 09:56:38;;;;;;;5.00;3.83;;;29.30;49.10;;;;;;4440349;32;20172;-75
2021/06/09 09:59:07;;;;;;;4.30;3.70;;;29.60;48.70;;;;;;4439769;32;20150;-77
2021/06/09 10:01:50;;;;;;;5.60;3.75;;;30.10;47.20;;;;;;4442307;32;20410;-75
2021/06/09 10:04:19;;;;;;;7.75;3.70;;;29.90;45.10;;;;;;4442131;32;20456;-76
2021/06/09 10:06:49;;;;;;;4.22;3.83;;;30.20;46.50;;;;;;4441984;32;20155;-76
2021/06/09 10:09:28;;;;;;;4.28;3.50;;;30.70;45.30;;;;;;4446503;32;20471;-75
2021/06/09 10:11:58;;;;;;;4.82;3.97;;;31.10;44.00;;;;;;4440634;32;20463;-75
2021/06/09 10:14:35;;;;;;;5.28;4.10;;;31.40;44.50;;;;;;4440047;32;20191;-75
2021/06/09 10:17:07;;;;;;;5.07;3.90;;;31.30;43.50;;;;;;4440077;32;20138;-76
2021/06/09 10:19:40;;;;;;;4.85;3.70;;;30.90;43.60;;;;;;4440049;32;20213;-76
2021/06/09 10:22:08;;;;;;;4.90;4.15;;;30.50;43.90;;;;;;4439524;32;20348;-78
2021/06/09 10:24:58;;;;;;;5.70;4.22;;;30.00;45.70;;;;;;4440481;32;20142;-75
2021/06/09 10:27:49;;;;;;;5.72;4.35;;;30.20;46.60;;;;;;4440099;32;20168;-76
2021/06/09 10:30:17;;;;;;;6.90;4.15;;;30.10;46.80;;;;;;4441315;32;20139;-76
2021/06/09 10:32:46;;;;;;;7.25;4.22;;;29.60;45.60;;;;;;4439981;32;20503;-76
2021/06/09 10:35:16;;;;;;;6.22;4.20;;;28.80;46.30;;;;;;4439795;32;20158;-76
2021/06/09 10:37:45;;;;;;;6.28;4.20;;;28.50;49.30;;;;;;4441340;32;20134;-76
2021/06/09 10:40:16;;;;;;;5.62;4.30;;;29.30;47.60;;;;;;4439658;32;20187;-75
2021/06/09 10:42:48;;;;;;;6.18;4.35;;;30.00;47.60;;;;;;4439580;32;20195;-74
2021/06/09 10:45:17;;;;;;;6.57;4.03;;;30.10;46.70;;;;;;4441102;32;20135;-75
2021/06/09 10:47:45;;;;;;;8.25;4.05;;;30.20;46.70;;;;;;4439639;32;20201;-75
2021/06/09 10:50:14;;;;;;;7.12;4.05;;;30.60;46.90;;;;;;4439550;32;20238;-75
2021/06/09 10:52:41;;;;;;;5.35;4.20;;;30.70;46.60;;;;;;4439757;32;20147;-74
2021/06/09 10:55:10;;;;;;;8.50;4.22;;;30.80;46.90;;;;;;4440506;32;20147;-75
2021/06/09 10:57:37;;;;;;;6.35;4.05;;;30.50;45.70;;;;;;4441043;32;20190;-75
2021/06/09 11:00:07;;;;;;;4.72;4.12;;;30.50;46.40;;;;;;4439717;32;20197;-75
2021/06/09 11:02:35;;;;;;;5.75;4.40;;;30.20;45.70;;;;;;4439944;32;20189;-75
2021/06/09 11:05:07;;;;;;;7.22;4.30;;;30.00;46.00;;;;;;4440669;32;20138;-76
2021/06/09 11:07:40;;;;;;;5.25;3.92;;;29.70;47.00;;;;;;4439813;32;20173;-74
2021/06/09 11:10:29;;;;;;;6.78;4.43;;;29.30;47.60;;;;;;4439284;32;20143;-75
2021/06/09 11:12:57;;;;;;;7.12;4.50;;;28.60;48.10;;;;;;4440707;32;20139;-75
2021/06/09 11:15:33;;;;;;;5.18;4.68;;;28.40;49.10;;;;;;4439383;32;20229;-75
2021/06/09 11:18:15;;;;;;;5.68;4.35;;;28.50;49.20;;;;;;4439741;32;20142;-75
2021/06/09 11:20:47;;;;;;;7.97;4.35;;;29.20;49.00;;;;;;4439847;32;20179;-76
2021/06/09 11:23:34;;;;;;;7.20;4.18;;;30.50;49.20;;;;;;4439825;32;20230;-76
2021/06/09 11:26:04;;;;;;;6.78;4.15;;;31.70;46.20;;;;;;4438876;32;20139;-74
2021/06/09 11:28:33;;;;;;;7.03;4.50;;;32.40;43.40;;;;;;4439044;32;20146;-75
2021/06/09 11:31:07;;;;;;;7.53;4.40;;;33.20;43.20;;;;;;4440873;32;20134;-74
2021/06/09 11:33:53;;;;;;;4.65;4.00;;;33.70;42.00;;;;;;4438207;32;20227;-75
2021/06/09 11:36:20;;;;;;;5.70;4.07;;;33.30;40.20;;;;;;4439053;32;20397;-75
2021/06/09 11:38:52;;;;;;;5.87;4.60;;;32.40;39.30;;;;;;4440819;32;20191;-76
2021/06/09 11:41:22;;;;;;;5.15;4.10;;;32.30;41.50;;;;;;4440880;32;20211;-75
2021/06/09 11:43:57;;;;;;;5.10;4.12;;;32.10;42.00;;;;;;4441039;32;20211;-72
2021/06/09 11:46:30;;;;;;;4.53;3.78;;;32.00;42.00;;;;;;4442601;32;20200;-74
2021/06/09 11:49:24;;;;;;;6.18;4.05;;;32.40;39.00;;;;;;4443524;32;20202;-75
2021/06/09 11:52:02;;;;;;;4.85;4.10;;;32.80;40.50;;;;;;4439648;32;20246;-74
2021/06/09 11:54:32;;;;;;;6.20;4.18;;;33.40;38.80;;;;;;4442564;32;20524;-75
2021/06/09 11:57:03;;;;;;;8.60;4.18;;;33.50;39.50;;;;;;4442163;32;20134;-74
2021/06/09 11:59:35;;;;;;;5.50;4.20;;;33.80;38.60;;;;;;4443501;32;20150;-74
2021/06/09 12:02:07;;;;;;;4.85;4.10;;;34.50;38.90;;;;;;4446125;32;20422;-76
2021/06/09 12:04:38;;;;;;;9.00;4.40;;;34.80;37.60;;;;;;4449717;32;20245;-76
2021/06/09 12:07:07;;;;;;;6.82;4.07;;;35.10;37.90;;;;;;4441259;32;20197;-75
2021/06/09 12:09:40;;;;;;;5.60;4.18;;;35.50;38.20;;;;;;4441731;32;20138;-74
2021/06/09 12:12:18;;;;;;;6.10;4.07;;;35.70;36.30;;;;;;4443588;32;20154;-74
2021/06/09 12:14:50;;;;;;;6.45;4.50;;;35.70;36.30;;;;;;4448363;32;20546;-75
2021/06/09 12:17:41;;;;;;;5.55;3.92;;;36.20;37.00;;;;;;4441437;32;20143;-75
2021/06/09 12:20:11;;;;;;;5.18;4.00;;;36.30;35.70;;;;;;4443059;32;20146;-74
2021/06/09 12:22:44;;;;;;;6.22;4.18;;;35.60;37.10;;;;;;4442847;32;20142;-74
2021/06/09 12:25:23;;;;;;;6.15;4.15;;;35.20;37.10;;;;;;4441016;32;20138;-75
2021/06/09 12:28:03;;;;;;;5.87;4.40;;;35.10;36.80;;;;;;4441556;32;20193;-74
2021/06/09 12:30:33;;;;;;;5.40;4.90;;;34.30;37.30;;;;;;4441370;32;20150;-77
2021/06/09 12:33:00;;;;;;;5.72;4.40;;;33.80;38.70;;;;;;4442163;32;20203;-75
2021/06/09 12:35:27;;;;;;;5.43;4.10;;;33.20;38.90;;;;;;4441354;32;20134;-76
2021/06/09 12:37:58;;;;;;;6.40;4.20;;;32.80;39.80;;;;;;4442819;32;20139;-75
2021/06/09 12:40:53;;;;;;;5.15;4.07;;;32.80;39.90;;;;;;4442780;32;20146;-75
2021/06/09 12:43:24;;;;;;;7.10;4.45;;;32.90;39.80;;;;;;4438765;32;20167;-73
2021/06/09 12:45:51;;;;;;;7.57;5.37;;;31.90;41.10;;;;;;4442247;32;20189;-74
2021/06/09 12:48:21;;;;;;;6.03;4.55;;;31.20;42.10;;;;;;4440588;32;20498;-75
2021/06/09 12:50:51;;;;;;;5.97;4.35;;;30.90;43.00;;;;;;4442418;32;20146;-75
2021/06/09 12:53:24;;;;;;;5.65;4.53;;;30.80;44.10;;;;;;4442534;32;20425;-74
2021/06/09 12:55:54;;;;;;;7.65;4.68;;;31.10;43.50;;;;;;4445525;32;20198;-75
2021/06/09 12:58:26;;;;;;;7.65;4.70;;;31.50;43.60;;;;;;4455821;32;20173;-76
2021/06/09 13:00:58;;;;;;;7.60;4.37;;;32.00;42.40;;;;;;4457886;32;20172;-76
2021/06/09 13:03:29;;;;;;;7.22;4.35;;;32.30;41.90;;;;;;4456357;32;20256;-76
2021/06/09 13:06:09;;;;;;;6.22;4.45;;;32.30;41.40;;;;;;4457295;32;20178;-75
2021/06/09 13:08:42;;;;;;;5.65;4.30;;;32.60;40.80;;;;;;4455663;32;20202;-75
2021/06/09 13:11:21;;;;;;;5.62;4.80;;;32.80;40.40;;;;;;4457753;32;20154;-75
2021/06/09 13:13:49;;;;;;;8.02;5.05;;;32.20;41.10;;;;;;4456192;32;20206;-74
2021/06/09 13:16:22;;;;;;;8.10;4.97;;;31.10;42.60;;;;;;4457664;32;20191;-74
2021/06/09 13:18:53;;;;;;;4.75;4.25;;;30.10;44.40;;;;;;4455814;32;20142;-75
2021/06/09 13:21:33;;;;;;;5.25;4.57;;;29.60;45.30;;;;;;4456872;32;20205;-75
2021/06/09 13:24:38;;;;;;;9.10;5.00;;;30.20;45.80;;;;;;4455910;32;20157;-74
2021/06/09 13:27:18;;;;;;;7.65;5.05;;;30.90;44.30;;;;;;4455771;32;20139;-74
2021/06/09 13:29:46;;;;;;;9.13;5.05;;;31.40;43.70;;;;;;4455628;32;20157;-75